Time;durP1;ratioP1;P1;durP2;ratioP2;P2;SDS_P1;SDS_P2;PMS_P1;PMS_P2;Temp;Humidity;BMP_temperature;BMP_pressure;BME280_temperature;BME280_humidity;BME280_pressure;Samples;Min_cycle;Max_cycle;Signal;HPM_P1;HPM_P2
2023/05/07 00:00:18;;;;;;;11.07;6.55;;;;;;;13.75;100.00;101526.31;5090220;28;20526;-75
2023/05/07 00:02:44;;;;;;;12.45;6.30;;;;;;;13.77;100.00;101532.28;5089899;28;20055;-75
2023/05/07 00:05:10;;;;;;;11.55;6.40;;;;;;;13.78;100.00;101531.25;5090191;28;20028;-75
2023/05/07 00:07:35;;;;;;;10.90;6.50;;;;;;;13.78;100.00;101534.78;5089909;28;20055;-75
2023/05/07 00:10:01;;;;;;;12.30;7.75;;;;;;;13.83;100.00;101536.84;5088711;28;20467;-75
2023/05/07 00:12:27;;;;;;;14.25;7.43;;;;;;;13.78;100.00;101526.75;5088511;28;20039;-75
2023/05/07 00:14:52;;;;;;;10.65;6.75;;;;;;;13.82;100.00;101535.19;5090135;28;20035;-75
2023/05/07 00:17:17;;;;;;;8.75;6.30;;;;;;;13.79;100.00;101525.72;5088339;28;20032;-75
2023/05/07 00:19:43;;;;;;;14.25;7.20;;;;;;;13.73;100.00;101517.66;5088106;28;20040;-75
2023/05/07 00:22:08;;;;;;;17.30;8.02;;;;;;;13.59;100.00;101506.03;5089716;28;20067;-75
2023/05/07 00:24:34;;;;;;;12.68;7.80;;;;;;;13.75;100.00;101529.84;5088112;28;20028;-75
2023/05/07 00:27:00;;;;;;;10.95;7.72;;;;;;;13.74;100.00;101525.47;5089774;28;20028;-75
2023/05/07 00:29:25;;;;;;;12.38;7.43;;;;;;;13.71;100.00;101517.84;5089744;28;20032;-75
2023/05/07 00:31:51;;;;;;;12.60;7.05;;;;;;;13.75;100.00;101507.53;5089573;28;20028;-75
2023/05/07 00:34:16;;;;;;;10.60;6.95;;;;;;;13.73;100.00;101513.13;5089523;28;20527;-75
2023/05/07 00:36:42;;;;;;;11.63;7.07;;;;;;;13.67;100.00;101508.53;5089502;28;20024;-75
2023/05/07 00:39:07;;;;;;;12.20;7.80;;;;;;;13.69;100.00;101514.53;5088238;28;20122;-75
2023/05/07 00:41:32;;;;;;;11.60;7.28;;;;;;;13.67;100.00;101516.56;5089385;28;20071;-75
2023/05/07 00:43:58;;;;;;;11.15;7.55;;;;;;;13.65;100.00;101501.72;5088142;28;20047;-71
2023/05/07 00:46:23;;;;;;;12.90;8.00;;;;;;;13.69;100.00;101503.00;5088080;28;20092;-71
2023/05/07 00:48:53;;;;;;;13.77;7.53;;;;;;;13.58;100.00;101486.47;5089659;28;20070;-71
2023/05/07 00:51:18;;;;;;;14.68;9.13;;;;;;;13.65;100.00;101501.72;5089257;28;20127;-71
2023/05/07 00:53:45;;;;;;;16.30;7.78;;;;;;;13.68;100.00;101496.81;5089312;28;20526;-71
2023/05/07 00:56:11;;;;;;;14.75;8.68;;;;;;;13.67;100.00;101500.50;5089176;28;20027;-71
2023/05/07 00:58:36;;;;;;;15.50;8.95;;;;;;;13.65;100.00;101497.22;5089207;28;20520;-71
2023/05/07 01:01:02;;;;;;;12.45;8.13;;;;;;;13.65;100.00;101496.38;5089231;28;20032;-71
2023/05/07 01:03:27;;;;;;;16.80;8.57;;;;;;;13.65;100.00;101502.56;5088948;28;20056;-71
2023/05/07 01:05:55;;;;;;;14.57;9.52;;;;;;;13.65;100.00;101499.91;5089179;28;20036;-71
2023/05/07 01:08:22;;;;;;;13.23;8.80;;;;;;;13.62;100.00;101496.78;5089069;28;20048;-71
2023/05/07 01:10:47;;;;;;;14.00;8.90;;;;;;;13.59;100.00;101490.78;5088947;28;20034;-71
2023/05/07 01:13:14;;;;;;;14.43;8.35;;;;;;;13.61;100.00;101495.13;5088896;28;20379;-71
2023/05/07 01:15:40;;;;;;;11.07;7.93;;;;;;;13.61;100.00;101493.28;5088866;28;20043;-71
2023/05/07 01:18:06;;;;;;;14.00;9.15;;;;;;;13.63;100.00;101495.75;5087480;28;20032;-71
2023/05/07 01:20:32;;;;;;;14.07;8.25;;;;;;;13.58;100.00;101491.81;5088873;28;20390;-71
2023/05/07 01:23:00;;;;;;;18.73;9.02;;;;;;;13.62;100.00;101496.78;5088909;28;20502;-71
2023/05/07 01:25:25;;;;;;;13.50;7.90;;;;;;;13.63;100.00;101501.13;5089020;28;20630;-71
2023/05/07 01:27:51;;;;;;;14.98;8.95;;;;;;;13.56;100.00;101485.81;5088853;28;20035;-71
2023/05/07 01:30:18;;;;;;;15.30;10.77;;;;;;;13.57;100.00;101492.84;5088821;28;20040;-71
2023/05/07 01:33:06;;;;;;;14.82;8.45;;;;;;;13.62;100.00;101494.91;5088816;28;20447;-71
2023/05/07 01:35:39;;;;;;;14.23;8.57;;;;;;;13.58;100.00;101491.00;5088696;28;20423;-71
2023/05/07 01:38:05;;;;;;;20.27;9.75;;;;;;;13.59;100.00;101488.09;5087357;28;20032;-71
2023/05/07 01:40:31;;;;;;;12.30;8.00;;;;;;;13.56;100.00;101475.09;5088759;28;20435;-71
2023/05/07 01:42:57;;;;;;;14.55;9.60;;;;;;;13.56;100.00;101488.50;5088825;28;20024;-71
2023/05/07 01:45:23;;;;;;;16.85;9.82;;;;;;;13.56;100.00;101475.09;5088626;28;20046;-71
2023/05/07 01:47:49;;;;;;;16.42;9.55;;;;;;;13.54;100.00;101460.25;5091478;28;20028;-71
2023/05/07 01:50:18;;;;;;;18.05;10.38;;;;;;;13.57;100.00;101468.72;5092856;28;20078;-71
2023/05/07 01:52:44;;;;;;;16.83;10.77;;;;;;;13.58;100.00;101467.69;5092659;28;20107;-71
2023/05/07 01:55:09;;;;;;;18.30;11.10;;;;;;;13.58;100.00;101467.69;5092952;28;20111;-71
2023/05/07 01:57:35;;;;;;;17.02;10.27;;;;;;;13.62;100.00;101470.78;5092422;28;20467;-71
2023/05/07 02:00:00;;;;;;;18.63;11.73;;;;;;;13.58;100.00;101467.69;5092620;28;20032;-71
2023/05/07 02:02:26;;;;;;;18.42;11.27;;;;;;;13.58;100.00;101465.00;5092403;28;20154;-71
2023/05/07 02:04:51;;;;;;;19.40;11.93;;;;;;;13.58;100.00;101461.50;5092480;28;20032;-71
2023/05/07 02:07:16;;;;;;;17.70;10.35;;;;;;;13.58;100.00;101465.00;5091112;28;20054;-71
2023/05/07 02:09:42;;;;;;;17.38;10.30;;;;;;;13.61;100.00;101473.69;5091115;28;20059;-71
2023/05/07 02:12:07;;;;;;;15.27;9.75;;;;;;;13.62;100.00;101475.31;5092243;28;20043;-71
2023/05/07 02:14:32;;;;;;;18.70;10.82;;;;;;;13.65;100.00;101474.91;5091206;28;20024;-71
2023/05/07 02:16:58;;;;;;;19.80;13.35;;;;;;;13.58;100.00;101454.28;5091935;28;20130;-71
2023/05/07 02:19:23;;;;;;;23.75;13.20;;;;;;;13.60;100.00;101464.81;5090987;28;20028;-71
2023/05/07 02:21:49;;;;;;;23.58;13.48;;;;;;;13.62;100.00;101461.94;5092194;28;20032;-71
2023/05/07 02:24:14;;;;;;;19.42;11.85;;;;;;;13.61;100.00;101469.16;5092098;28;20027;-71
2023/05/07 02:26:41;;;;;;;22.48;13.02;;;;;;;13.61;100.00;101461.09;5092126;28;20031;-71
2023/05/07 02:29:06;;;;;;;18.92;13.02;;;;;;;13.59;100.00;101458.63;5091950;28;20138;-71
2023/05/07 02:31:33;;;;;;;18.45;12.88;;;;;;;13.55;100.00;101461.91;5092016;28;20024;-71
2023/05/07 02:33:59;;;;;;;21.65;12.15;;;;;;;13.55;100.00;101461.91;5092140;28;20050;-71
2023/05/07 02:36:25;;;;;;;20.55;12.90;;;;;;;13.53;100.00;101462.09;5091676;28;20020;-71
2023/05/07 02:38:50;;;;;;;23.20;13.00;;;;;;;13.57;100.00;101460.69;5091950;28;20032;-71
2023/05/07 02:41:15;;;;;;;20.58;12.30;;;;;;;13.56;100.00;101464.38;5091591;28;20036;-71
2023/05/07 02:43:41;;;;;;;20.20;12.18;;;;;;;13.51;100.00;101453.44;5091707;28;20089;-71
2023/05/07 02:46:08;;;;;;;20.73;13.35;;;;;;;13.46;100.00;101458.56;5091699;28;20463;-71
2023/05/07 02:48:34;;;;;;;21.08;12.95;;;;;;;13.55;100.00;101480.69;5092001;28;20044;-71
2023/05/07 02:51:00;;;;;;;19.92;12.75;;;;;;;13.55;100.00;101473.47;5089710;28;20394;-71
2023/05/07 02:53:26;;;;;;;18.80;12.75;;;;;;;13.56;100.00;101471.59;5091676;28;20059;-71
2023/05/07 02:55:55;;;;;;;18.63;12.13;;;;;;;13.55;100.00;101465.41;5091537;28;20056;-71
2023/05/07 02:58:21;;;;;;;18.55;12.70;;;;;;;13.51;100.00;101466.00;5090330;28;20111;-71
2023/05/07 03:00:46;;;;;;;18.52;12.07;;;;;;;13.54;100.00;101466.44;5091144;28;20476;-71
2023/05/07 03:03:12;;;;;;;21.67;13.82;;;;;;;13.53;100.00;101475.50;5089756;28;20052;-71
2023/05/07 03:05:37;;;;;;;20.70;13.32;;;;;;;13.52;100.00;101463.16;5091333;28;20028;-71
2023/05/07 03:08:03;;;;;;;21.33;14.45;;;;;;;13.52;100.00;101475.72;5091291;28;20383;-71
2023/05/07 03:10:29;;;;;;;21.67;12.85;;;;;;;13.52;100.00;101467.69;5091161;28;20372;-71
2023/05/07 03:12:55;;;;;;;22.05;13.93;;;;;;;13.52;100.00;101470.38;5091689;28;20024;-71
2023/05/07 03:15:21;;;;;;;22.13;14.50;;;;;;;13.48;100.00;101463.75;5090958;28;20090;-71
2023/05/07 03:17:47;;;;;;;19.80;13.85;;;;;;;13.52;100.00;101473.88;5091071;28;20040;-71
2023/05/07 03:20:12;;;;;;;21.10;14.60;;;;;;;13.50;100.00;101475.09;5091032;28;20383;-71
2023/05/07 03:22:38;;;;;;;21.65;15.07;;;;;;;13.52;100.00;101475.72;5090969;28;20027;-71
2023/05/07 03:25:04;;;;;;;21.17;14.75;;;;;;;13.51;100.00;101466.00;5090970;28;20043;-71
2023/05/07 03:27:30;;;;;;;22.42;15.75;;;;;;;13.47;100.00;101459.44;5089557;28;20468;-71
2023/05/07 03:29:55;;;;;;;26.73;12.35;;;;;;;13.47;100.00;101467.47;5089682;28;20301;-71
2023/05/07 03:32:20;;;;;;;22.20;14.70;;;;;;;13.44;100.00;101451.75;5090746;28;20031;-71
2023/05/07 03:34:46;;;;;;;20.83;13.35;;;;;;;13.44;100.00;101466.00;5090837;28;20077;-71
2023/05/07 03:37:11;;;;;;;21.38;14.45;;;;;;;13.45;100.00;101462.28;5090583;28;20081;-71
2023/05/07 03:39:36;;;;;;;24.50;14.30;;;;;;;13.45;100.00;101462.28;5090660;28;20495;-71
2023/05/07 03:42:02;;;;;;;22.63;14.52;;;;;;;13.45;100.00;101464.97;5088904;28;20381;-71
2023/05/07 03:44:28;;;;;;;21.98;15.43;;;;;;;13.45;100.00;101456.94;5090778;28;20020;-71
2023/05/07 03:46:53;;;;;;;22.60;16.67;;;;;;;13.46;100.00;101457.75;5089049;28;20431;-71
2023/05/07 03:49:18;;;;;;;23.75;15.13;;;;;;;13.46;100.00;101455.06;5090562;28;20050;-71
2023/05/07 03:51:44;;;;;;;22.88;14.98;;;;;;;13.48;100.00;101453.84;5090488;28;20036;-71
2023/05/07 03:54:09;;;;;;;24.33;15.13;;;;;;;13.48;100.00;101459.19;5089449;28;20093;-71
2023/05/07 03:56:34;;;;;;;35.03;16.85;;;;;;;13.47;100.00;101454.88;5089762;28;20119;-71
2023/05/07 03:59:01;;;;;;;24.55;15.80;;;;;;;13.43;100.00;101464.34;5090247;28;20032;-71
2023/05/07 04:01:26;;;;;;;22.63;15.25;;;;;;;13.42;100.00;101465.38;5089801;28;20077;-71
2023/05/07 04:03:52;;;;;;;21.85;15.15;;;;;;;13.46;100.00;101477.31;5089157;28;20070;-71
2023/05/07 04:06:17;;;;;;;21.80;15.32;;;;;;;13.43;100.00;101468.88;5088415;28;20495;-71
2023/05/07 04:08:43;;;;;;;25.65;16.58;;;;;;;13.43;100.00;101474.25;5090104;28;20032;-71
2023/05/07 04:11:08;;;;;;;22.15;17.02;;;;;;;13.45;100.00;101481.06;5089697;28;20043;-71
2023/05/07 04:13:34;;;;;;;24.40;16.05;;;;;;;13.39;100.00;101473.81;5088689;28;20497;-71
2023/05/07 04:16:02;;;;;;;26.73;17.35;;;;;;;13.42;100.00;101477.94;5088202;28;20038;-71
2023/05/07 04:18:27;;;;;;;25.60;17.58;;;;;;;13.46;100.00;101484.56;5089634;28;20032;-72
2023/05/07 04:20:52;;;;;;;24.13;17.55;;;;;;;13.43;100.00;101485.78;5089691;28;20415;-71
2023/05/07 04:23:18;;;;;;;21.80;15.93;;;;;;;13.46;100.00;101485.38;5089913;28;20322;-71
2023/05/07 04:25:43;;;;;;;24.08;16.95;;;;;;;13.43;100.00;101482.28;5089820;28;20055;-71
2023/05/07 04:28:08;;;;;;;24.05;18.05;;;;;;;13.45;100.00;101488.25;5088203;28;20482;-71
2023/05/07 04:30:34;;;;;;;25.60;18.75;;;;;;;13.50;100.00;101496.53;5089794;28;20073;-71
2023/05/07 04:32:59;;;;;;;25.85;18.85;;;;;;;13.52;100.00;101494.50;5089604;28;20111;-71
2023/05/07 04:35:24;;;;;;;23.60;17.20;;;;;;;13.53;100.00;101491.59;5089576;28;20056;-71
2023/05/07 04:37:50;;;;;;;26.27;20.23;;;;;;;13.54;100.00;101487.06;5089707;28;20025;-71
2023/05/07 04:40:15;;;;;;;25.98;19.45;;;;;;;13.53;100.00;101488.91;5089144;28;20028;-71
2023/05/07 04:42:41;;;;;;;28.83;19.02;;;;;;;13.53;100.00;101493.44;5089243;28;20067;-71
2023/05/07 04:45:08;;;;;;;30.73;19.27;;;;;;;13.51;100.00;101484.78;5089411;28;20055;-71
2023/05/07 04:47:33;;;;;;;28.48;20.70;;;;;;;13.53;100.00;101485.41;5089358;28;20031;-71
2023/05/07 04:49:59;;;;;;;27.77;20.77;;;;;;;13.56;100.00;101485.00;5089311;28;20115;-71
2023/05/07 04:52:24;;;;;;;27.73;19.73;;;;;;;13.49;100.00;101476.94;5089230;28;20028;-71
2023/05/07 04:54:50;;;;;;;27.60;21.63;;;;;;;13.57;100.00;101492.84;5088111;28;20028;-71
2023/05/07 04:57:16;;;;;;;27.92;19.02;;;;;;;13.60;100.00;101491.63;5089154;28;20039;-71
2023/05/07 04:59:42;;;;;;;27.92;20.95;;;;;;;13.63;100.00;101485.84;5089306;28;20073;-70
2023/05/07 05:02:07;;;;;;;29.17;19.95;;;;;;;13.64;100.00;101487.50;5087292;28;20051;-70
2023/05/07 05:04:32;;;;;;;30.83;20.90;;;;;;;13.69;100.00;101494.94;5089169;28;20075;-70
2023/05/07 05:06:58;;;;;;;29.83;19.30;;;;;;;13.72;100.00;101490.00;5089035;28;20165;-71
2023/05/07 05:09:23;;;;;;;32.22;23.02;;;;;;;13.74;100.00;101500.53;5088844;28;20122;-71
2023/05/07 05:11:48;;;;;;;29.45;21.45;;;;;;;13.75;100.00;101497.66;5089003;28;20055;-71
2023/05/07 05:14:14;;;;;;;27.08;20.83;;;;;;;13.78;100.00;101504.44;5089045;28;20038;-71
2023/05/07 05:16:39;;;;;;;30.63;22.85;;;;;;;13.79;100.00;101509.63;5088930;28;20048;-71
2023/05/07 05:19:05;;;;;;;28.38;21.27;;;;;;;13.81;100.00;101510.25;5089013;28;20194;-71
2023/05/07 05:21:31;;;;;;;29.67;23.10;;;;;;;13.85;100.00;101504.47;5088491;28;20038;-71
2023/05/07 05:23:57;;;;;;;30.90;22.33;;;;;;;13.82;100.00;101503.84;5088592;28;20050;-71
2023/05/07 05:26:22;;;;;;;30.25;23.17;;;;;;;13.86;100.00;101512.34;5087459;28;20036;-71
2023/05/07 05:28:47;;;;;;;28.52;22.08;;;;;;;13.88;100.00;101515.63;5088873;28;20024;-71
2023/05/07 05:31:14;;;;;;;27.67;22.25;;;;;;;13.89;100.00;101511.09;5088924;28;20028;-71
2023/05/07 05:33:39;;;;;;;29.42;23.20;;;;;;;13.95;100.00;101521.00;5087589;28;20395;-71
2023/05/07 05:36:06;;;;;;;28.02;21.52;;;;;;;14.01;100.00;101521.00;5088797;28;20032;-71
2023/05/07 05:38:31;;;;;;;28.73;22.73;;;;;;;14.06;100.00;101522.28;5088707;28;20040;-70
2023/05/07 05:40:56;;;;;;;30.98;23.05;;;;;;;14.15;100.00;101529.13;5070281;28;20086;-71
2023/05/07 05:43:23;;;;;;;36.00;22.65;;;;;;;14.22;100.00;101532.63;5088718;28;20063;-71
2023/05/07 05:45:48;;;;;;;33.78;23.17;;;;;;;14.32;100.00;101530.34;5089154;28;20038;-71
2023/05/07 05:48:13;;;;;;;32.17;22.83;;;;;;;14.38;100.00;101528.72;5088459;28;20335;-71
2023/05/07 05:50:39;;;;;;;34.88;23.73;;;;;;;14.39;100.00;101533.06;5088647;28;20040;-71
2023/05/07 05:53:04;;;;;;;30.98;23.00;;;;;;;14.40;100.00;101537.38;5089082;28;20028;-71
2023/05/07 05:55:32;;;;;;;30.85;23.77;;;;;;;14.39;100.00;101536.56;5088504;28;20047;-71
2023/05/07 05:57:57;;;;;;;30.55;22.63;;;;;;;14.38;100.00;101534.06;5088787;28;20024;-71
2023/05/07 06:00:22;;;;;;;28.70;22.83;;;;;;;14.41;100.00;101528.31;5088453;28;20028;-71
2023/05/07 06:02:48;;;;;;;34.25;24.63;;;;;;;14.33;100.00;101521.28;5088338;28;20052;-71
2023/05/07 06:05:14;;;;;;;29.65;22.75;;;;;;;14.41;100.00;101525.66;5088375;28;20037;-71
2023/05/07 06:07:40;;;;;;;30.25;23.42;;;;;;;14.45;100.00;101524.19;5088435;28;20032;-71
2023/05/07 06:10:06;;;;;;;29.23;21.55;;;;;;;14.50;100.00;101529.75;5088227;28;20032;-71
2023/05/07 06:12:31;;;;;;;27.42;21.65;;;;;;;14.56;100.00;101534.31;5088402;28;20028;-71
2023/05/07 06:14:57;;;;;;;28.55;21.63;;;;;;;14.61;100.00;101531.03;5088171;28;20047;-71
2023/05/07 06:17:22;;;;;;;29.10;21.63;;;;;;;14.59;100.00;101522.34;5087231;28;20479;-71
2023/05/07 06:19:48;;;;;;;26.95;22.73;;;;;;;14.68;100.00;101530.00;5088397;28;20075;-71
2023/05/07 06:22:13;;;;;;;29.70;20.13;;;;;;;14.76;100.00;101536.19;5069904;28;20032;-71
2023/05/07 06:24:38;;;;;;;28.15;22.02;;;;;;;14.73;100.00;101523.19;5088299;28;20035;-71
2023/05/07 06:27:04;;;;;;;29.10;21.85;;;;;;;14.78;100.00;101545.69;5088265;28;20031;-71
2023/05/07 06:29:31;;;;;;;30.23;20.02;;;;;;;14.79;100.00;101527.72;5088401;28;20025;-71
2023/05/07 06:31:56;;;;;;;26.23;19.45;;;;;;;14.88;100.00;101540.75;5088277;28;20146;-71
2023/05/07 06:34:22;;;;;;;27.83;21.15;;;;;;;14.89;100.00;101545.06;5090311;28;20122;-71
2023/05/07 06:36:47;;;;;;;29.15;20.50;;;;;;;14.94;100.00;101535.56;5091788;28;20035;-71
2023/05/07 06:39:12;;;;;;;26.83;19.35;;;;;;;14.94;100.00;101546.31;5091831;28;20035;-72
2023/05/07 06:41:38;;;;;;;27.15;22.02;;;;;;;15.01;100.00;101536.38;5091461;28;20080;-71
2023/05/07 06:44:04;;;;;;;27.02;19.38;;;;;;;15.02;100.00;101536.16;5091647;28;20078;-71
2023/05/07 06:46:30;;;;;;;26.63;20.48;;;;;;;15.09;100.00;101549.56;5091837;28;20020;-71
2023/05/07 06:48:56;;;;;;;29.55;21.70;;;;;;;15.18;100.00;101548.31;5091369;28;20391;-70
2023/05/07 06:51:22;;;;;;;25.55;19.67;;;;;;;15.27;100.00;101552.47;5090265;28;20081;-69
2023/05/07 06:53:47;;;;;;;28.35;19.90;;;;;;;15.30;100.00;101552.03;5091534;28;20093;-70
2023/05/07 06:56:12;;;;;;;26.33;19.80;;;;;;;15.34;100.00;101555.94;5090218;28;20427;-70
2023/05/07 06:58:38;;;;;;;28.27;19.88;;;;;;;15.34;100.00;101547.88;5090183;28;20094;-72
2023/05/07 07:01:03;;;;;;;27.13;19.35;;;;;;;15.42;100.00;101552.19;5073177;28;20062;-71
2023/05/07 07:03:28;;;;;;;25.90;18.33;;;;;;;15.45;100.00;101559.00;5091234;28;20676;-71
2023/05/07 07:05:54;;;;;;;25.38;19.08;;;;;;;15.44;100.00;101557.38;5091362;28;20027;-70
2023/05/07 07:08:21;;;;;;;30.35;18.80;;;;;;;15.43;100.00;101553.84;5091192;28;20414;-71
2023/05/07 07:10:47;;;;;;;27.52;19.70;;;;;;;15.39;100.00;101552.63;5091130;28;20067;-71
2023/05/07 07:13:12;;;;;;;28.20;19.52;;;;;;;15.39;100.00;101559.88;5091212;28;20055;-71
2023/05/07 07:15:38;;;;;;;25.50;19.63;;;;;;;15.41;100.00;101565.84;5090952;28;20047;-71
2023/05/07 07:18:03;;;;;;;23.42;16.40;;;;;;;15.41;100.00;101568.53;5090895;28;20517;-71
2023/05/07 07:20:29;;;;;;;24.63;18.38;;;;;;;15.42;100.00;101562.13;5090927;28;20122;-71
2023/05/07 07:22:54;;;;;;;24.60;19.00;;;;;;;15.51;100.00;101564.38;5091201;28;20433;-71
2023/05/07 07:25:20;;;;;;;25.65;19.35;;;;;;;15.58;100.00;101567.03;5090841;28;20039;-71
2023/05/07 07:27:45;;;;;;;24.02;17.65;;;;;;;15.58;100.00;101558.97;5089489;28;20024;-71
2023/05/07 07:30:10;;;;;;;26.15;18.00;;;;;;;15.60;100.00;101564.13;5090726;28;20126;-71
2023/05/07 07:32:36;;;;;;;26.75;19.80;;;;;;;15.58;100.00;101575.09;5090924;28;20040;-70
2023/05/07 07:35:02;;;;;;;22.85;16.73;;;;;;;15.55;100.00;101570.16;5090767;28;20110;-70
2023/05/07 07:37:27;;;;;;;26.17;19.90;;;;;;;15.59;100.00;101575.91;5090756;28;20039;-71
2023/05/07 07:39:52;;;;;;;23.10;18.08;;;;;;;15.57;100.00;101570.75;5090602;28;20494;-71
2023/05/07 07:42:18;;;;;;;24.05;17.83;;;;;;;15.67;100.00;101565.78;5090952;28;20518;-71
2023/05/07 07:44:43;;;;;;;22.17;17.77;;;;;;;15.69;100.00;101574.47;5089802;28;20473;-71
2023/05/07 07:47:09;;;;;;;24.77;18.25;;;;;;;15.71;100.00;101574.25;5090496;28;20672;-70
2023/05/07 07:49:35;;;;;;;25.73;18.35;;;;;;;15.76;100.00;101577.13;5090542;28;20478;-70
2023/05/07 07:52:00;;;;;;;24.98;18.40;;;;;;;15.80;100.00;101573.00;5088778;28;20024;-71
2023/05/07 07:54:26;;;;;;;25.58;19.08;;;;;;;15.91;100.00;101583.06;5090372;28;20036;-70
2023/05/07 07:56:51;;;;;;;24.88;18.38;;;;;;;15.97;100.00;101574.13;5090224;28;20162;-71
2023/05/07 07:59:18;;;;;;;26.27;17.40;;;;;;;16.05;100.00;101580.31;5090249;28;20047;-70
2023/05/07 08:01:45;;;;;;;25.23;18.65;;;;;;;16.07;100.00;101575.53;5090335;28;20044;-71
2023/05/07 08:04:10;;;;;;;26.13;19.08;;;;;;;16.14;100.00;101579.03;5090140;28;20052;-70
2023/05/07 08:06:36;;;;;;;24.50;18.10;;;;;;;16.19;100.00;101577.34;5088883;28;20031;-70
2023/05/07 08:09:02;;;;;;;24.80;18.00;;;;;;;16.24;100.00;101576.66;5089920;28;20085;-71
2023/05/07 08:11:28;;;;;;;26.85;18.52;;;;;;;16.30;100.00;101580.38;5090242;28;20496;-70
2023/05/07 08:13:54;;;;;;;25.20;18.55;;;;;;;16.51;100.00;101585.41;5089998;28;20093;-70
2023/05/07 08:16:19;;;;;;;21.85;17.35;;;;;;;16.75;100.00;101589.16;5088568;28;20052;-70
2023/05/07 08:18:45;;;;;;;25.70;19.38;;;;;;;17.36;100.00;101592.16;5088810;28;20121;-71
2023/05/07 08:21:10;;;;;;;21.42;16.05;;;;;;;18.14;100.00;101594.97;5088506;28;20028;-71
2023/05/07 08:23:36;;;;;;;26.52;16.92;;;;;;;18.78;100.00;101591.78;5088212;28;20676;-70
2023/05/07 08:26:01;;;;;;;24.30;15.48;;;;;;;19.65;100.00;101593.75;5090070;28;20082;-71
2023/05/07 08:28:26;;;;;;;21.60;15.55;;;;;;;19.72;98.89;101590.91;5088544;28;20024;-70
2023/05/07 08:30:52;;;;;;;22.60;15.68;;;;;;;19.69;99.23;101595.75;5081759;28;20036;-71
2023/05/07 08:33:17;;;;;;;20.45;14.80;;;;;;;20.33;94.75;101592.94;5087427;28;20028;-70
2023/05/07 08:35:43;;;;;;;20.73;14.07;;;;;;;20.65;91.02;101588.88;5089517;28;20020;-70
2023/05/07 08:38:08;;;;;;;21.00;13.50;;;;;;;20.27;92.30;101585.75;5089355;28;20359;-70
2023/05/07 08:40:38;;;;;;;21.92;14.00;;;;;;;19.79;96.33;101595.13;5088066;28;20039;-69
2023/05/07 08:43:05;;;;;;;23.30;15.85;;;;;;;19.23;98.25;101586.63;5089393;28;20218;-69
2023/05/07 08:45:33;;;;;;;18.35;13.75;;;;;;;18.89;99.78;101593.69;5089491;28;20036;-70
2023/05/07 08:48:01;;;;;;;22.42;15.35;;;;;;;18.54;99.91;101597.09;5089281;28;20047;-70
2023/05/07 08:50:26;;;;;;;20.02;14.13;;;;;;;18.34;100.00;101593.91;5089407;28;20032;-70
2023/05/07 08:52:52;;;;;;;21.38;14.23;;;;;;;18.23;100.00;101594.66;5089336;28;20034;-69
2023/05/07 08:55:18;;;;;;;20.80;14.60;;;;;;;18.12;100.00;101590.88;5089270;28;20032;-70
2023/05/07 08:57:44;;;;;;;18.05;12.50;;;;;;;18.10;100.00;101593.81;5088391;28;20035;-70
2023/05/07 09:00:10;;;;;;;20.73;15.63;;;;;;;18.14;100.00;101592.28;5089379;28;20047;-70
2023/05/07 09:02:36;;;;;;;19.90;13.60;;;;;;;18.16;100.00;101601.00;5089011;28;20052;-70
2023/05/07 09:05:02;;;;;;;21.02;15.80;;;;;;;18.26;100.00;101597.75;5090205;28;20062;-76
2023/05/07 09:07:28;;;;;;;20.25;14.15;;;;;;;18.35;100.00;101603.63;5091078;28;20482;-76
2023/05/07 09:09:57;;;;;;;22.05;14.73;;;;;;;18.34;100.00;101600.13;5090447;28;20032;-77
2023/05/07 09:12:22;;;;;;;20.13;13.68;;;;;;;18.30;100.00;101609.72;5089698;28;20024;-77
2023/05/07 09:14:48;;;;;;;21.02;15.18;;;;;;;18.23;100.00;101608.97;5091295;28;20038;-77
2023/05/07 09:17:16;;;;;;;22.15;15.15;;;;;;;18.28;100.00;101608.28;5091303;28;20093;-77
2023/05/07 09:19:43;;;;;;;21.08;14.27;;;;;;;18.39;100.00;101599.41;5091045;28;20442;-77
2023/05/07 09:22:08;;;;;;;21.98;14.57;;;;;;;18.58;100.00;101600.19;5090943;28;20110;-76
2023/05/07 09:24:36;;;;;;;22.27;15.32;;;;;;;18.75;100.00;101595.75;5091489;28;20115;-77
2023/05/07 09:27:02;;;;;;;20.85;15.32;;;;;;;18.85;100.00;101599.78;5091642;28;20027;-77
2023/05/07 09:29:29;;;;;;;22.10;14.77;;;;;;;18.97;100.00;101603.31;5090458;28;20096;-77
2023/05/07 09:31:55;;;;;;;26.50;14.30;;;;;;;18.92;100.00;101579.69;5090722;28;20028;-77
2023/05/07 09:34:21;;;;;;;21.85;15.15;;;;;;;18.98;100.00;101584.16;5090880;28;20036;-77
2023/05/07 09:36:47;;;;;;;22.48;15.30;;;;;;;19.07;100.00;101598.13;5090954;28;20034;-77
2023/05/07 09:39:13;;;;;;;24.85;15.68;;;;;;;19.15;100.00;101591.56;5090636;28;20036;-77
2023/05/07 09:41:45;;;;;;;19.73;13.07;;;;;;;19.21;100.00;101602.25;5089410;28;20049;-75
2023/05/07 09:44:10;;;;;;;20.48;13.18;;;;;;;19.11;100.00;101596.63;5088945;28;20818;-75
2023/05/07 09:46:38;;;;;;;20.02;15.02;;;;;;;19.10;100.00;101586.88;5088079;28;20097;-75
2023/05/07 09:49:09;;;;;;;20.95;14.52;;;;;;;19.14;100.00;101598.03;5088759;28;20403;-76
2023/05/07 09:51:41;;;;;;;20.67;14.50;;;;;;;19.27;100.00;101600.50;5088742;28;20028;-76
2023/05/07 09:54:07;;;;;;;23.77;15.43;;;;;;;19.37;100.00;101597.19;5087535;28;20282;-70
2023/05/07 09:56:34;;;;;;;19.25;14.00;;;;;;;19.39;100.00;101598.59;5088464;28;20425;-70
2023/05/07 09:59:00;;;;;;;19.67;14.30;;;;;;;19.35;100.00;101592.00;5088724;28;20067;-70
2023/05/07 10:01:27;;;;;;;19.98;14.50;;;;;;;19.27;99.55;101595.09;5088795;28;20024;-70
2023/05/07 10:03:53;;;;;;;21.02;15.45;;;;;;;19.32;100.00;101600.59;5088599;28;20048;-70
2023/05/07 10:06:20;;;;;;;19.20;14.18;;;;;;;19.28;100.00;101591.31;5087638;28;20081;-70
2023/05/07 10:08:45;;;;;;;22.35;14.50;;;;;;;19.19;100.00;101601.66;5091693;28;20028;-70
2023/05/07 10:11:11;;;;;;;21.92;15.48;;;;;;;19.31;100.00;101590.00;5092599;28;20028;-70
2023/05/07 10:13:37;;;;;;;22.05;15.48;;;;;;;19.43;100.00;101601.66;5091384;28;20071;-70
2023/05/07 10:16:06;;;;;;;19.75;14.30;;;;;;;19.44;100.00;101593.31;5092615;28;20085;-70
2023/05/07 10:18:33;;;;;;;20.50;15.02;;;;;;;19.32;100.00;101594.38;5092459;28;20035;-70
2023/05/07 10:21:10;;;;;;;23.15;15.80;;;;;;;19.44;100.00;101598.72;5092465;28;20039;-70
2023/05/07 10:23:36;;;;;;;20.58;15.57;;;;;;;19.60;99.92;101602.56;5092460;28;20375;-70
2023/05/07 10:26:05;;;;;;;19.85;14.15;;;;;;;19.71;100.00;101595.50;5092421;28;20705;-70
2023/05/07 10:28:34;;;;;;;23.05;15.93;;;;;;;19.75;96.83;101598.56;5092561;28;20107;-70
2023/05/07 10:31:11;;;;;;;20.13;13.30;;;;;;;19.83;98.45;101601.72;5092461;28;20374;-70
2023/05/07 10:33:39;;;;;;;22.20;14.63;;;;;;;19.74;94.26;101594.22;5092270;28;20035;-70
2023/05/07 10:36:06;;;;;;;20.85;13.60;;;;;;;19.74;96.20;101600.44;5091990;28;20069;-70
2023/05/07 10:38:32;;;;;;;17.45;11.73;;;;;;;19.80;96.67;101596.78;5091945;28;20024;-70
2023/05/07 10:40:57;;;;;;;18.77;12.55;;;;;;;19.82;93.62;101602.78;5092222;28;20047;-70
2023/05/07 10:43:23;;;;;;;17.98;11.85;;;;;;;19.79;93.75;101599.72;5091960;28;20062;-70
2023/05/07 10:46:15;;;;;;;20.63;11.70;;;;;;;19.90;97.08;101601.56;5091963;28;20028;-70
2023/05/07 10:49:13;;;;;;;18.15;11.85;;;;;;;19.85;95.07;101609.59;5091962;28;20032;-70
2023/05/07 10:51:38;;;;;;;16.67;11.23;;;;;;;19.79;92.81;101599.72;5046436;28;20068;-70
2023/05/07 10:54:14;;;;;;;17.13;11.02;;;;;;;19.95;90.89;101608.97;5091855;28;20101;-70
2023/05/07 10:56:43;;;;;;;17.17;10.88;;;;;;;19.95;89.77;101598.16;5091609;28;20020;-70
2023/05/07 10:59:21;;;;;;;18.13;11.95;;;;;;;20.12;91.69;101605.28;5091716;28;20047;-70